Terminal Aerodrome Forecast
Issued by NWS

Current Version | Previous Version | Text Only | Print | Product List | Glossary On
Versions: 1 2 3 4 5 6 7 8 9 10 11 12 13 14 15 16
000
FTUS43 KDLH 242300
TAFHYR
TAF
KHYR 242340Z 2500/2524 00000KT 5SM -RA BR OVC060
     FM250300 08006KT 4SM -RA BR OVC012
     FM250600 09006KT 2SM -RA BR OVC008
     FM251300 10004KT 1 1/2SM -RA BR OVC008
     FM252000 21006KT 3SM -SHRA BR OVC012=

USA.gov is the U.S. government's official web portal to all federal, state and local government web resources and services.